Hlavní strana
METAR-TAF:

METAR-TAF

Letiště :

Ciudad de Guatemala, Guatemala

zeměpisná šířka: 14-35N, zeměpisná délka: 090-31W, výška: 1489 m

Aktuální stav počasí

Zpráva byla vytvořena před 19 minutami, v 00:00 UTC
Severní vítr 14 kt s nárazy do 24 kt
Teplota 15°C
Vlhkost vzduchu 55%
Tlak 1028 hPa
Viditelnost 10 km a více
Oblačno až skoro zataženo ve výšce 8000 ft

METAR: MGGT 180000Z 36014G24KT CAVOK 15/06 Q1028 A3036 BKN080 CB DIST WSW/W

Čas: 18:19 (00:19 UTC)

Předpověď počasí

Předpověď platná od 17 v 18 UTC do 18 v 18 UTC
Severní vítr 22 kt
Viditelnost 10 km a více
Polojasno ve výšce 1800 ft
Změna
od 18 v 01 UTC do 18 v 03 UTC
Polojasno ve výšce 1600 ft
Polojasno ve výšce 8000 ft
Změna
od 18 v 06 UTC do 18 v 08 UTC
Skoro jasno ve výšce 1400 ft
Změna
od 18 v 14 UTC do 18 v 16 UTC
Polojasno ve výšce 1800 ft

TAF: MGGT 1718/1818 36022KT 9999 SCT018 TX21/1720Z TN09/1812Z BECMG 1801/1803 SCT016 SCT080 BECMG 1806/1808 FEW014 BECMG 1814/1816 SCT018

Stav a předpovědi počasí z více než 4 000 letišť (zprávy METAR a TAF).

Červené a žluté tečky na mapě představují dostupné meteorologické stanice.

Když kurzor umístíte na tečku, zobrazí se název stanice.

Pak kliknutím zobrazíte stav a předpověď počasí.

Chcete-li změnit mapu, kliknutím na zelené tlačítko se znaménkem +mapu přiblížíte, kliknutím na zelené tlačítko se znaménkem – mapu oddálíte a kliknutím na zelené šipky přejdete na sousední mapy.


METAR-TAF: